Kill Devil Hills, NC

3:02 PM EDT on March 26, 2017 (GMT -0400)
First Flight

Weather History for KFFA - December, 2012

Change the Weather History Date:

Wednesday, December 26, 2012

  Actual Average (KMQI) Record (KMQI)
Temperature  
Mean Temperature 54 °F -  
Max Temperature 61 °F 49 °F 71 °F (1973)
Min Temperature 48 °F 36 °F 17 °F (1985)
Degree Days  
Heating Degree Days 10    
Growing Degree Days 4 (Base 50)    
Moisture  
Dew Point 51 °F    
Average Humidity 87    
Maximum Humidity 96    
Minimum Humidity 79    
Precipitation  
Precipitation 1.80 in - - ()
Sea Level Pressure  
Sea Level Pressure 29.74 in    
Wind  
Wind Speed 10 mph (SE)    
Max Wind Speed 18 mph    
Max Gust Speed 30 mph    
Visibility 7 miles    
Events Rain    
Averages and records for this station are not official NWS values.
T = Trace of Precipitation, MM = Missing Value Source: NWS Daily Summary

Daily Weather History Graph

Daily Weather History Graph

Search for Another Location

Airport or City:

Trip Planner

Search our weather history database for the weather conditions in past years. The results will help you decide how hot, cold, wet, or windy it might be!

Date:

Astronomy

Dec. 26, 2012 Rise Set
Actual Time 7:11 AM EST 4:55 PM EST
Civil Twilight 6:43 AM EST 5:23 PM EST
Nautical Twilight 6:11 AM EST 5:56 PM EST
Astronomical Twilight 5:39 AM EST 6:27 PM EST
Moon 3:46 PM EST 5:34 AM EST
Length of Visible Light 10h 40m
Length of Day
9h 43m
Waxing Gibbous, 97% of the Moon is Illuminated
Dec 26
Waxing Gibbous
Dec 28
Full
Jan 4
Last Quarter
Jan 11
New
Jan 18
First Quarter

Hourly Weather History & Observations

Time (EST) Temp. Dew Point Humidity Pressure Visibility Wind Dir Wind Speed Gust Speed Precip Events Conditions
12:15 AM 48.6 °F 42.8 °F 80% 30.10 in 10.0 mi ENE 11.5 mph 18.4 mph N/A   Scattered Clouds
12:35 AM 48.7 °F 43.5 °F 82% 30.11 in 10.0 mi NE 6.9 mph 16.1 mph N/A   Clear
12:55 AM 49.1 °F 43.9 °F 82% 30.11 in 10.0 mi NE 6.9 mph - N/A   Mostly Cloudy
1:15 AM 49.3 °F 43.9 °F 82% 30.11 in 10.0 mi NE 8.1 mph - N/A   Mostly Cloudy
1:35 AM 49.5 °F 44.2 °F 82% 30.11 in 10.0 mi NE 6.9 mph - N/A   Mostly Cloudy
1:55 AM 49.8 °F 44.6 °F 82% 30.10 in 10.0 mi NE 6.9 mph - N/A   Overcast
2:15 AM 50.0 °F 44.4 °F 81% 30.09 in 10.0 mi ENE 9.2 mph - N/A   Overcast
2:35 AM 50.2 °F 43.9 °F 79% 30.09 in 10.0 mi ENE 10.4 mph 16.1 mph N/A   Scattered Clouds
2:55 AM 50.2 °F 44.2 °F 80% 30.09 in 10.0 mi ENE 10.4 mph 17.3 mph N/A   Mostly Cloudy
3:15 AM 50.4 °F 44.2 °F 80% 30.08 in 10.0 mi ENE 10.4 mph - N/A   Overcast
3:35 AM 50.4 °F 44.6 °F 81% 30.08 in 10.0 mi ENE 11.5 mph - N/A   Overcast
3:55 AM 50.5 °F 44.4 °F 80% 30.06 in 10.0 mi ENE 10.4 mph 21.9 mph N/A   Scattered Clouds
4:15 AM 50.5 °F 44.4 °F 80% 30.04 in 10.0 mi ENE 10.4 mph 17.3 mph N/A   Mostly Cloudy
4:35 AM 50.5 °F 44.4 °F 80% 30.04 in 10.0 mi ENE 10.4 mph 18.4 mph N/A Rain Light Rain
4:55 AM 50.5 °F 44.8 °F 81% 30.03 in 10.0 mi ENE 10.4 mph 17.3 mph N/A   Overcast
5:15 AM 50.7 °F 45.3 °F 82% 30.03 in 10.0 mi ENE 11.5 mph 16.1 mph N/A   Overcast
5:35 AM 50.9 °F 45.1 °F 81% 30.01 in 10.0 mi ENE 10.4 mph 16.1 mph N/A   Overcast
5:55 AM 50.9 °F 45.0 °F 80% 30.00 in 10.0 mi ENE 11.5 mph 16.1 mph N/A   Overcast
6:15 AM 50.9 °F 45.1 °F 81% 30.01 in 10.0 mi ENE 10.4 mph 17.3 mph N/A   Overcast
6:35 AM 51.1 °F 45.5 °F 81% 30.00 in 10.0 mi ENE 11.5 mph 18.4 mph N/A   Overcast
6:55 AM 50.9 °F 45.7 °F 82% 29.99 in 10.0 mi ENE 10.4 mph 17.3 mph N/A Rain Light Rain
7:15 AM 51.1 °F 45.9 °F 82% 29.96 in 10.0 mi East 10.4 mph 19.6 mph N/A   Overcast
7:35 AM 51.3 °F 45.7 °F 81% 29.95 in 10.0 mi East 12.7 mph 19.6 mph N/A   Overcast
7:55 AM 51.3 °F 46.0 °F 82% 29.94 in 7.0 mi East 12.7 mph 18.4 mph N/A   Light Drizzle
8:15 AM 50.9 °F 46.4 °F 85% 29.91 in 7.0 mi East 15.0 mph 21.9 mph N/A Rain Light Rain
8:35 AM 51.1 °F 46.6 °F 85% 29.89 in 5.0 mi East 13.8 mph 27.6 mph N/A Rain Rain
8:55 AM 50.7 °F 47.1 °F 87% 29.87 in 2.5 mi East 15.0 mph 23.0 mph 0.04 in Rain Light Rain
9:15 AM 50.7 °F 48.2 °F 91% 29.89 in 3.0 mi East 10.4 mph 20.7 mph 0.01 in Rain Light Rain
9:35 AM 51.1 °F 49.1 °F 93% 29.87 in 2.0 mi East 10.4 mph 19.6 mph 0.06 in Rain Rain
9:55 AM 51.6 °F 50.0 °F 94% 29.84 in 1.8 mi East 10.4 mph 20.7 mph 0.14 in Rain Rain
10:15 AM 52.7 °F 51.3 °F 95% 29.83 in 2.0 mi East 12.7 mph 21.9 mph 0.02 in Rain Rain
10:35 AM 54.0 °F 52.7 °F 95% 29.81 in 2.0 mi ESE 12.7 mph 18.4 mph 0.12 in Rain Rain
10:55 AM 54.7 °F 53.4 °F 96% 29.79 in 1.2 mi ESE 9.2 mph 18.4 mph 0.21 in Rain Heavy Rain
11:15 AM 56.3 °F 55.0 °F 96% 29.77 in 1.0 mi SSE 18.4 mph 21.9 mph 0.15 in Rain Heavy Rain
11:35 AM 58.6 °F 57.6 °F 96% 29.76 in 2.0 mi SSE 9.2 mph 18.4 mph 0.35 in Rain Rain
11:55 AM 59.0 °F 57.9 °F 96% 29.73 in 1.8 mi SSE 9.2 mph - 0.44 in Rain Rain
12:15 PM 58.5 °F 57.4 °F 96% 29.70 in 3.0 mi SE 9.2 mph 16.1 mph 0.03 in Rain Light Rain
12:35 PM 59.5 °F 58.5 °F 96% 29.66 in 5.0 mi SE 11.5 mph 20.7 mph 0.04 in Rain Rain
12:55 PM 59.0 °F 57.7 °F 96% 29.63 in 2.0 mi SE 12.7 mph - 0.04 in   Light Drizzle
1:15 PM 57.9 °F 56.8 °F 96% 29.63 in 2.5 mi SE 6.9 mph - N/A Rain Light Rain
1:35 PM 59.7 °F 58.6 °F 96% 29.62 in 5.0 mi SSE 12.7 mph 19.6 mph N/A Rain Light Rain
1:55 PM 60.4 °F 58.6 °F 94% 29.59 in 5.0 mi SSE 12.7 mph 26.5 mph 0.01 in Rain Light Rain
2:15 PM 60.8 °F 58.3 °F 91% 29.59 in 5.0 mi SSE 11.5 mph 21.9 mph N/A   Scattered Clouds
2:35 PM 60.6 °F 57.7 °F 90% 29.58 in 3.0 mi South 9.2 mph 19.6 mph 0.02 in Rain Rain
2:55 PM 60.1 °F 57.7 °F 92% 29.57 in 3.0 mi South 8.1 mph - 0.05 in Rain Rain
3:15 PM 59.5 °F 57.6 °F 93% 29.60 in 3.0 mi SW 12.7 mph 18.4 mph 0.10 in Rain Heavy Rain
3:35 PM 59.9 °F 58.5 °F 95% 29.56 in 1.0 mi South 11.5 mph 23.0 mph 0.78 in Rain Heavy Rain
3:55 PM 61.2 °F 59.9 °F 96% 29.52 in 10.0 mi South 10.4 mph 20.7 mph 0.86 in Rain Light Rain
4:15 PM 60.6 °F 59.2 °F 95% 29.49 in 5.0 mi SSE 9.2 mph 20.7 mph 0.01 in Rain Light Rain
4:35 PM 59.9 °F 58.5 °F 95% 29.47 in 7.0 mi South 8.1 mph - 0.01 in   Scattered Clouds
4:55 PM 59.5 °F 58.1 °F 95% 29.47 in 5.0 mi South 10.4 mph 20.7 mph 0.01 in   Clear
5:15 PM 59.2 °F 57.4 °F 94% 29.45 in 7.0 mi South 10.4 mph 17.3 mph N/A   Scattered Clouds
5:35 PM 59.9 °F 57.4 °F 91% 29.44 in 7.0 mi South 6.9 mph - N/A   Scattered Clouds
5:55 PM 60.1 °F 57.7 °F 92% 29.44 in 5.0 mi South 8.1 mph 16.1 mph N/A   Clear
6:15 PM 59.4 °F 56.7 °F 91% 29.44 in 5.0 mi South 6.9 mph - N/A   Clear
6:35 PM 59.4 °F 56.7 °F 91% 29.43 in 7.0 mi South 9.2 mph - N/A   Clear
6:55 PM 59.4 °F 56.7 °F 91% 29.42 in 7.0 mi South 5.8 mph 18.4 mph N/A   Clear
7:15 PM 59.0 °F 56.5 °F 91% 29.41 in 7.0 mi South 9.2 mph - N/A   Clear
7:35 PM 59.2 °F 57.0 °F 93% 29.40 in 7.0 mi SSW 8.1 mph 19.6 mph N/A   Clear
7:55 PM 59.2 °F 57.2 °F 93% 29.39 in 7.0 mi SSW 9.2 mph 16.1 mph N/A   Clear
8:15 PM 58.8 °F 55.9 °F 90% 29.39 in 10.0 mi SW 11.5 mph 18.4 mph N/A   Clear
8:35 PM 58.5 °F 54.7 °F 87% 29.40 in 10.0 mi SW 10.4 mph 17.3 mph N/A   Clear
8:55 PM 58.3 °F 54.3 °F 87% 29.40 in 10.0 mi WSW 12.7 mph 21.9 mph N/A   Clear
9:15 PM 58.1 °F 53.6 °F 85% 29.42 in 10.0 mi WSW 13.8 mph 21.9 mph N/A   Clear
9:35 PM 57.6 °F 53.1 °F 85% 29.44 in 10.0 mi West 13.8 mph 17.3 mph N/A   Scattered Clouds
9:55 PM 55.9 °F 50.4 °F 82% 29.45 in 10.0 mi West 17.3 mph 24.2 mph N/A   Overcast
10:15 PM 54.0 °F 48.4 °F 81% 29.47 in 10.0 mi West 18.4 mph 25.3 mph N/A   Overcast
10:35 PM 53.1 °F 47.1 °F 80% 29.47 in 10.0 mi West 13.8 mph 25.3 mph N/A   Overcast
10:55 PM 52.2 °F 46.0 °F 80% 29.48 in 10.0 mi West 16.1 mph 29.9 mph N/A   Overcast
11:15 PM 51.1 °F 45.3 °F 81% 29.49 in 10.0 mi West 12.7 mph 23.0 mph N/A   Overcast
11:35 PM 50.4 °F 45.5 °F 83% 29.49 in 10.0 mi West 11.5 mph 19.6 mph N/A   Overcast
11:55 PM 50.0 °F 44.8 °F 82% 29.49 in 10.0 mi West 13.8 mph 18.4 mph N/A   Overcast